nws-alerts: Checking more than four warning/county codes can delay the loading of your pages. You should use a cron job to get the data.
EllijayWeather Station Historical Data
Daily Summary for November 23, 2018 Units:  English    Metric   Both
Daily Weekly Monthly Yearly Custom
  High: Low: Average:
Temperature: 46.8 °F 34.5 °F 41.6 °F
Dew Point: 37.0 °F 21.9 °F 31.9 °F
Humidity: 76% 54% 69%
Wind Speed: 10.1mph 0.0mph 1.7mph
Wind Gust: 17.0mph - -
Wind- - SE
Pressure: 30.40 in 30.05 in -
Precipitation: 0.01 in    
Historical Graphs
 
 
Tabular Data for November 23, 2018
Time Temperature Dew Point Pressure Wind Wind Speed Wind Gust Humidity Rainfall Rate (Hourly) solar
00:04 35.8 °F 23.7 °F 30.40 in Calm     61% 0.00 in meteobridge W/m2
00:09 35.6 °F 23.5 °F 30.40 in Calm     61% 0.00 in meteobridge W/m2
00:14 35.4 °F 23.4 °F 30.40 in Calm     61% 0.00 in meteobridge W/m2
00:19 35.4 °F 23.4 °F 30.40 in Calm     61% 0.00 in meteobridge W/m2
00:24 35.2 °F 23.2 °F 30.40 in Calm     61% 0.00 in meteobridge W/m2
00:29 35.1 °F 23.0 °F 30.40 in Calm     61% 0.00 in meteobridge W/m2
00:34 35.1 °F 23.0 °F 30.40 in Calm     61% 0.00 in meteobridge W/m2
00:39 34.9 °F 22.8 °F 30.40 in Calm     61% 0.00 in meteobridge W/m2
00:44 34.9 °F 22.8 °F 30.39 in Calm     61% 0.00 in meteobridge W/m2
00:49 34.9 °F 22.8 °F 30.39 in Calm     61% 0.00 in meteobridge W/m2
00:54 34.9 °F 22.5 °F 30.39 in Calm     60% 0.00 in meteobridge W/m2
00:59 34.9 °F 22.5 °F 30.39 in Calm     60% 0.00 in meteobridge W/m2
01:04 34.9 °F 22.5 °F 30.38 in Calm     60% 0.00 in meteobridge W/m2
01:09 34.9 °F 22.5 °F 30.38 in Calm     60% 0.00 in meteobridge W/m2
01:14 34.9 °F 21.9 °F 30.38 in Calm     59% 0.00 in meteobridge W/m2
01:19 34.9 °F 22.5 °F 30.37 in Calm     60% 0.00 in meteobridge W/m2
01:24 34.7 °F 22.3 °F 30.37 in Calm     60% 0.00 in meteobridge W/m2
01:29 34.5 °F 22.1 °F 30.37 in Calm     60% 0.00 in meteobridge W/m2
01:34 34.9 °F 21.9 °F 30.37 in Calm     59% 0.00 in meteobridge W/m2
01:39 35.2 °F 21.9 °F 30.37 in Calm     58% 0.00 in meteobridge W/m2
01:44 35.8 °F 22.1 °F 30.37 in Calm     57% 0.00 in meteobridge W/m2
01:49 36.1 °F 21.9 °F 30.37 in Calm     56% 0.00 in meteobridge W/m2
01:54 36.3 °F 22.1 °F 30.36 in Calm     56% 0.00 in meteobridge W/m2
01:59 36.5 °F 22.3 °F 30.36 in Calm     56% 0.00 in meteobridge W/m2
02:04 36.9 °F 22.6 °F 30.36 in Calm     56% 0.00 in meteobridge W/m2
02:09 37.2 °F 22.5 °F 30.36 in Calm     55% 0.00 in meteobridge W/m2
02:14 37.6 °F 22.8 °F 30.36 in Calm     55% 0.00 in meteobridge W/m2
02:19 37.6 °F 22.8 °F 30.36 in Calm     55% 0.00 in meteobridge W/m2
02:24 37.8 °F 23.0 °F 30.36 in Calm     55% 0.00 in meteobridge W/m2
02:29 38.1 °F 23.0 °F 30.36 in Calm     54% 0.00 in meteobridge W/m2
02:34 38.1 °F 23.4 °F 30.36 in Calm     55% 0.00 in meteobridge W/m2
02:39 38.3 °F 23.5 °F 30.36 in Calm     55% 0.00 in meteobridge W/m2
02:44 38.5 °F 23.7 °F 30.36 in Calm     55% 0.00 in meteobridge W/m2
02:49 38.5 °F 23.7 °F 30.36 in Calm     55% 0.00 in meteobridge W/m2
02:54 38.5 °F 23.7 °F 30.36 in Calm     55% 0.00 in meteobridge W/m2
02:59 38.8 °F 24.1 °F 30.36 in Calm     55% 0.00 in meteobridge W/m2
03:04 38.8 °F 24.1 °F 30.36 in Calm     55% 0.00 in meteobridge W/m2
03:09 38.8 °F 24.4 °F 30.36 in Calm     56% 0.00 in meteobridge W/m2
03:14 39.0 °F 24.6 °F 30.35 in Calm     56% 0.00 in meteobridge W/m2
03:19 39.0 °F 24.6 °F 30.34 in Calm     56% 0.00 in meteobridge W/m2
03:24 39.0 °F 25.2 °F 30.34 in Calm     57% 0.00 in meteobridge W/m2
03:29 39.2 °F 25.2 °F 30.34 in Calm   2.0 mph 57% 0.00 in meteobridge W/m2
03:34 39.6 °F 25.2 °F 30.34 in Calm     56% 0.00 in meteobridge W/m2
03:39 39.7 °F 25.7 °F 30.34 in Calm     57% 0.00 in meteobridge W/m2
03:44 40.3 °F 26.2 °F 30.34 in Calm   2.0 mph 57% 0.00 in meteobridge W/m2
03:49 40.5 °F 27.3 °F 30.34 in Calm   1.0 mph 59% 0.00 in meteobridge W/m2
03:54 40.5 °F 27.7 °F 30.34 in Calm     60% 0.00 in meteobridge W/m2
03:58 40.6 °F 28.2 °F 30.33 in Calm     61% 0.00 in meteobridge W/m2
04:04 40.8 °F 28.8 °F 30.33 in Calm     62% 0.00 in meteobridge W/m2
04:09 41.2 °F 30.0 °F 30.32 in Calm     64% 0.00 in meteobridge W/m2
04:14 41.2 °F 30.7 °F 30.33 in Calm     66% 0.00 in meteobridge W/m2
04:19 41.4 °F 31.6 °F 30.32 in Calm     68% 0.00 in meteobridge W/m2
04:24 41.5 °F 32.2 °F 30.32 in Calm     69% 0.00 in meteobridge W/m2
04:28 41.5 °F 32.5 °F 30.33 in Calm     70% 0.00 in meteobridge W/m2
04:34 41.5 °F 32.5 °F 30.33 in Calm     70% 0.00 in meteobridge W/m2
04:39 41.4 °F 32.4 °F 30.33 in Calm     70% 0.00 in meteobridge W/m2
04:44 41.0 °F 32.0 °F 30.33 in Calm     70% 0.00 in meteobridge W/m2
04:49 40.8 °F 32.2 °F 30.33 in Calm     71% 0.00 in meteobridge W/m2
04:54 41.0 °F 32.7 °F 30.33 in Calm     72% 0.00 in meteobridge W/m2
04:59 41.2 °F 33.3 °F 30.33 in Calm   1.0 mph 73% 0.00 in meteobridge W/m2
05:04 41.2 °F 33.3 °F 30.33 in SE 0.9 mph 1.0 mph 73% 0.00 in meteobridge W/m2
05:09 41.5 °F 33.8 °F 30.33 in Calm     74% 0.00 in meteobridge W/m2
05:14 41.5 °F 34.2 °F 30.33 in Calm     75% 0.00 in meteobridge W/m2
05:18 41.5 °F 34.2 °F 30.32 in SSW 0.9 mph 5.0 mph 75% 0.00 in meteobridge W/m2
05:24 41.7 °F 34.7 °F 30.33 in Calm   4.0 mph 76% 0.00 in meteobridge W/m2
05:29 41.7 °F 34.7 °F 30.32 in SE 2.0 mph 5.0 mph 76% 0.00 in meteobridge W/m2
05:34 41.7 °F 34.7 °F 30.33 in Calm   1.0 mph 76% 0.00 in meteobridge W/m2
05:39 41.7 °F 34.7 °F 30.33 in SE 0.9 mph 2.0 mph 76% 0.00 in meteobridge W/m2
05:44 41.5 °F 34.5 °F 30.33 in Calm   1.0 mph 76% 0.00 in meteobridge W/m2
05:49 41.5 °F 34.5 °F 30.33 in ESE 2.0 mph 2.0 mph 76% 0.00 in meteobridge W/m2
05:54 41.4 °F 34.3 °F 30.33 in SE 2.0 mph 4.0 mph 76% 0.00 in meteobridge W/m2
05:59 41.4 °F 34.3 °F 30.33 in Calm   1.0 mph 76% 0.00 in meteobridge W/m2
06:04 41.2 °F 34.2 °F 30.33 in SE 0.9 mph 8.0 mph 76% 0.00 in meteobridge W/m2
06:09 41.2 °F 34.2 °F 30.33 in SE 4.9 mph 7.0 mph 76% 0.00 in meteobridge W/m2
06:14 41.2 °F 34.2 °F 30.33 in East 4.9 mph 5.0 mph 76% 0.00 in meteobridge W/m2
06:19 41.2 °F 34.2 °F 30.33 in ESE 4.0 mph 7.0 mph 76% 0.00 in meteobridge W/m2
06:24 41.0 °F 34.0 °F 30.33 in ESE 6.9 mph 8.0 mph 76% 0.00 in meteobridge W/m2
06:29 41.0 °F 34.0 °F 30.33 in East 4.9 mph 6.0 mph 76% 0.00 in meteobridge W/m2
06:34 40.8 °F 33.8 °F 30.33 in ESE 4.9 mph 7.0 mph 76% 0.00 in meteobridge W/m2
06:39 40.8 °F 33.8 °F 30.33 in SE 2.0 mph 2.0 mph 76% 0.00 in meteobridge W/m2
06:44 40.6 °F 33.6 °F 30.33 in Calm   5.0 mph 76% 0.00 in meteobridge W/m2
06:49 40.6 °F 33.6 °F 30.34 in SE 6.0 mph 7.0 mph 76% 0.00 in meteobridge W/m2
06:54 40.6 °F 33.6 °F 30.33 in ESE 4.0 mph 4.0 mph 76% 0.00 in meteobridge W/m2
06:59 40.6 °F 33.6 °F 30.33 in SSW 2.0 mph 5.0 mph 76% 0.00 in meteobridge W/m2
07:04 40.5 °F 33.4 °F 30.33 in SE 6.0 mph 11.0 mph 76% 0.00 in meteobridge W/m2
07:09 40.5 °F 33.4 °F 30.33 in ESE 2.0 mph 5.0 mph 76% 0.00 in meteobridge W/m2
07:14 40.3 °F 33.3 °F 30.32 in SE 0.9 mph 6.0 mph 76% 0.00 in meteobridge W/m2
07:19 40.3 °F 33.3 °F 30.32 in Calm   7.0 mph 76% 0.00 in meteobridge W/m2
07:24 40.1 °F 33.1 °F 30.32 in East 2.0 mph 5.0 mph 76% 0.00 in meteobridge W/m2
07:29 40.1 °F 33.1 °F 30.33 in SE 6.0 mph 6.0 mph 76% 0.00 in meteobridge W/m2
07:34 39.9 °F 32.9 °F 30.32 in Calm   5.0 mph 76% 0.00 in meteobridge W/m2
07:39 40.1 °F 33.1 °F 30.32 in SE 0.9 mph 7.0 mph 76% 0.00 in meteobridge W/m2
07:44 40.1 °F 33.1 °F 30.32 in Calm   6.0 mph 76% 0.00 in meteobridge W/m2
07:49 40.3 °F 33.3 °F 30.32 in SE 0.9 mph 7.0 mph 76% 0.00 in meteobridge W/m2
07:54 40.3 °F 33.3 °F 30.32 in East 2.9 mph 5.0 mph 76% 0.00 in meteobridge W/m2
07:59 40.5 °F 33.4 °F 30.33 in SE 4.9 mph 9.0 mph 76% 0.00 in meteobridge W/m2
08:04 40.6 °F 33.6 °F 30.33 in Calm   7.0 mph 76% 0.00 in meteobridge W/m2
08:09 40.8 °F 33.8 °F 30.33 in SE 2.0 mph 8.0 mph 76% 0.00 in meteobridge W/m2
08:14 40.8 °F 33.4 °F 30.33 in Calm   7.0 mph 75% 0.00 in meteobridge W/m2
08:19 41.2 °F 33.8 °F 30.34 in ESE 4.9 mph 5.0 mph 75% 0.00 in meteobridge W/m2
08:24 41.4 °F 34.0 °F 30.33 in Calm   11.0 mph 75% 0.00 in meteobridge W/m2
08:29 41.4 °F 34.0 °F 30.33 in SE 2.0 mph 6.0 mph 75% 0.00 in meteobridge W/m2
08:34 41.4 °F 34.0 °F 30.33 in SSE 10.1 mph 10.0 mph 75% 0.00 in meteobridge W/m2
08:39 41.4 °F 34.0 °F 30.34 in ESE 4.0 mph 7.0 mph 75% 0.00 in meteobridge W/m2
08:44 41.5 °F 34.2 °F 30.34 in SE 6.0 mph 9.0 mph 75% 0.00 in meteobridge W/m2
08:49 41.5 °F 34.2 °F 30.34 in SE 0.9 mph 5.0 mph 75% 0.00 in meteobridge W/m2
08:54 41.7 °F 34.3 °F 30.34 in SE 6.0 mph 9.0 mph 75% 0.00 in meteobridge W/m2
08:59 41.7 °F 34.3 °F 30.34 in Calm   8.0 mph 75% 0.00 in meteobridge W/m2
09:04 41.9 °F 34.2 °F 30.34 in SE 8.1 mph 8.0 mph 74% 0.00 in meteobridge W/m2
09:09 42.1 °F 34.7 °F 30.34 in ESE 0.9 mph 10.0 mph 75% 0.00 in meteobridge W/m2
09:14 42.3 °F 34.5 °F 30.34 in ESE 0.9 mph 9.0 mph 74% 0.00 in meteobridge W/m2
09:19 42.4 °F 34.7 °F 30.34 in SE 6.0 mph 10.0 mph 74% 0.00 in meteobridge W/m2
09:24 42.6 °F 34.9 °F 30.34 in ESE 4.0 mph 11.0 mph 74% 0.00 in meteobridge W/m2
09:29 43.0 °F 34.9 °F 30.34 in SE 4.0 mph 6.0 mph 73% 0.00 in meteobridge W/m2
09:34 43.3 °F 35.2 °F 30.34 in SE 4.9 mph 7.0 mph 73% 0.00 in meteobridge W/m2
09:39 43.5 °F 35.4 °F 30.34 in Calm   2.0 mph 73% 0.00 in meteobridge W/m2
09:44 43.9 °F 35.8 °F 30.34 in Calm   4.0 mph 73% 0.00 in meteobridge W/m2
09:49 44.1 °F 35.6 °F 30.34 in SE 2.0 mph 6.0 mph 72% 0.00 in meteobridge W/m2
09:54 44.1 °F 35.6 °F 30.34 in Calm   4.0 mph 72% 0.00 in meteobridge W/m2
09:59 44.1 °F 35.6 °F 30.34 in SE 2.0 mph 4.0 mph 72% 0.00 in meteobridge W/m2
10:04 44.2 °F 35.8 °F 30.34 in Calm   6.0 mph 72% 0.00 in meteobridge W/m2
10:09 44.2 °F 35.8 °F 30.34 in East 2.0 mph 6.0 mph 72% 0.00 in meteobridge W/m2
10:14 44.2 °F 35.8 °F 30.34 in SE 2.0 mph 10.0 mph 72% 0.00 in meteobridge W/m2
10:19 44.2 °F 36.1 °F 30.33 in Calm   6.0 mph 73% 0.00 in meteobridge W/m2
10:23 44.2 °F 36.1 °F 30.34 in SE 4.0 mph 9.0 mph 73% 0.00 in meteobridge W/m2
10:29 44.4 °F 36.3 °F 30.33 in Calm   5.0 mph 73% 0.00 in meteobridge W/m2
10:34 44.6 °F 36.1 °F 30.33 in SE 4.9 mph 8.0 mph 72% 0.00 in meteobridge W/m2
10:39 44.6 °F 36.1 °F 30.32 in East 2.0 mph 9.0 mph 72% 0.00 in meteobridge W/m2
10:44 44.8 °F 36.7 °F 30.33 in ESE 2.0 mph 8.0 mph 73% 0.00 in meteobridge W/m2
10:49 45.0 °F 36.5 °F 30.33 in ESE 4.0 mph 6.0 mph 72% 0.00 in meteobridge W/m2
10:54 45.0 °F 36.5 °F 30.34 in SE 4.9 mph 9.0 mph 72% 0.00 in meteobridge W/m2
10:59 44.8 °F 36.3 °F 30.33 in SE 0.9 mph 11.0 mph 72% 0.00 in meteobridge W/m2
11:04 44.6 °F 36.1 °F 30.33 in Calm   8.0 mph 72% 0.00 in meteobridge W/m2
11:09 44.8 °F 36.7 °F 30.32 in SE 4.9 mph 9.0 mph 73% 0.00 in meteobridge W/m2
11:14 44.8 °F 36.7 °F 30.32 in East 0.9 mph 6.0 mph 73% 0.00 in meteobridge W/m2
11:19 44.8 °F 36.7 °F 30.31 in SE 8.1 mph 10.0 mph 73% 0.00 in meteobridge W/m2
11:24 45.0 °F 36.9 °F 30.31 in Calm   4.0 mph 73% 0.00 in meteobridge W/m2
11:29 45.1 °F 36.7 °F 30.31 in SE 4.0 mph 6.0 mph 72% 0.00 in meteobridge W/m2
11:34 45.3 °F 36.9 °F 30.31 in ESE 2.0 mph 8.0 mph 72% 0.00 in meteobridge W/m2
11:39 45.7 °F 36.9 °F 30.30 in ESE 2.0 mph 7.0 mph 71% 0.00 in meteobridge W/m2
11:44 45.9 °F 36.7 °F 30.30 in Calm   2.0 mph 70% 0.00 in meteobridge W/m2
11:49 45.9 °F 36.7 °F 30.30 in SE 2.0 mph 2.0 mph 70% 0.00 in meteobridge W/m2
11:54 46.0 °F 36.5 °F 30.30 in Calm   7.0 mph 69% 0.00 in meteobridge W/m2
11:59 45.9 °F 36.0 °F 30.29 in ESE 0.9 mph 5.0 mph 68% 0.00 in meteobridge W/m2
12:04 46.0 °F 36.1 °F 30.29 in Calm   8.0 mph 68% 0.00 in meteobridge W/m2
12:09 46.2 °F 36.0 °F 30.29 in SSE 6.9 mph 8.0 mph 67% 0.00 in meteobridge W/m2
12:14 46.2 °F 36.0 °F 30.29 in South 4.9 mph 5.0 mph 67% 0.00 in meteobridge W/m2
12:19 46.6 °F 35.8 °F 30.29 in Calm   5.0 mph 66% 0.00 in meteobridge W/m2
12:24 46.4 °F 35.6 °F 30.29 in SE 6.9 mph 7.0 mph 66% 0.00 in meteobridge W/m2
12:29 46.4 °F 35.6 °F 30.29 in ESE 4.0 mph 7.0 mph 66% 0.00 in meteobridge W/m2
12:34 46.2 °F 35.4 °F 30.28 in ESE 2.0 mph 9.0 mph 66% 0.00 in meteobridge W/m2
12:39 46.2 °F 35.4 °F 30.27 in ESE 0.9 mph 7.0 mph 66% 0.00 in meteobridge W/m2
12:44 46.2 °F 35.4 °F 30.27 in SSE 4.0 mph 6.0 mph 66% 0.00 in meteobridge W/m2
12:49 46.4 °F 35.6 °F 30.27 in Calm   6.0 mph 66% 0.00 in meteobridge W/m2
12:54 46.6 °F 35.8 °F 30.26 in ESE 0.9 mph 1.0 mph 66% 0.00 in meteobridge W/m2
12:59 46.8 °F 36.0 °F 30.26 in ESE 2.0 mph 4.0 mph 66% 0.00 in meteobridge W/m2
13:04 46.8 °F 36.0 °F 30.26 in Calm   7.0 mph 66% 0.00 in meteobridge W/m2
13:09 46.6 °F 35.4 °F 30.26 in SE 4.9 mph 9.0 mph 65% 0.00 in meteobridge W/m2
13:14 46.6 °F 35.4 °F 30.26 in SSE 4.0 mph 8.0 mph 65% 0.00 in meteobridge W/m2
13:19 46.4 °F 35.6 °F 30.26 in Calm   5.0 mph 66% 0.00 in meteobridge W/m2
13:24 46.6 °F 35.8 °F 30.26 in East 2.9 mph 6.0 mph 66% 0.00 in meteobridge W/m2
13:29 46.6 °F 35.8 °F 30.26 in East 4.0 mph 6.0 mph 66% 0.00 in meteobridge W/m2
13:34 46.6 °F 36.1 °F 30.25 in SE 2.0 mph 15.0 mph 67% 0.00 in meteobridge W/m2
13:39 46.4 °F 35.6 °F 30.25 in Calm   2.0 mph 66% 0.00 in meteobridge W/m2
13:44 46.2 °F 35.4 °F 30.24 in Calm   6.0 mph 66% 0.00 in meteobridge W/m2
13:49 46.2 °F 36.0 °F 30.24 in SE 0.9 mph 2.0 mph 67% 0.00 in meteobridge W/m2
13:54 46.6 °F 36.1 °F 30.24 in SSE 2.0 mph 6.0 mph 67% 0.00 in meteobridge W/m2
13:59 46.4 °F 36.0 °F 30.24 in Calm   4.0 mph 67% 0.00 in meteobridge W/m2
14:04 46.4 °F 36.0 °F 30.24 in Calm   4.0 mph 67% 0.00 in meteobridge W/m2
14:09 46.2 °F 36.0 °F 30.23 in ESE 4.0 mph 4.0 mph 67% 0.00 in meteobridge W/m2
14:14 46.2 °F 36.0 °F 30.23 in ESE 4.0 mph 4.0 mph 67% 0.00 in meteobridge W/m2
14:19 46.2 °F 36.3 °F 30.23 in ESE 0.9 mph 4.0 mph 68% 0.00 in meteobridge W/m2
14:24 46.0 °F 36.1 °F 30.23 in SE 4.0 mph 4.0 mph 68% 0.00 in meteobridge W/m2
14:29 46.0 °F 36.1 °F 30.22 in SE 0.9 mph 6.0 mph 68% 0.00 in meteobridge W/m2
14:34 45.9 °F 36.0 °F 30.22 in Calm   1.0 mph 68% 0.00 in meteobridge W/m2
14:39 45.9 °F 36.3 °F 30.22 in Calm   2.0 mph 69% 0.00 in meteobridge W/m2
14:44 45.9 °F 36.3 °F 30.22 in SE 4.9 mph 5.0 mph 69% 0.00 in meteobridge W/m2
14:49 45.9 °F 36.3 °F 30.22 in SE 0.9 mph 4.0 mph 69% 0.00 in meteobridge W/m2
14:54 45.9 °F 36.3 °F 30.22 in SE 2.0 mph 4.0 mph 69% 0.00 in meteobridge W/m2
14:59 46.0 °F 36.5 °F 30.22 in ESE 2.0 mph 6.0 mph 69% 0.00 in meteobridge W/m2
15:04 45.9 °F 36.3 °F 30.22 in Calm   6.0 mph 69% 0.00 in meteobridge W/m2
15:09 45.9 °F 36.7 °F 30.22 in Calm   1.0 mph 70% 0.00 in meteobridge W/m2
15:14 46.0 °F 36.5 °F 30.22 in ESE 4.0 mph 4.0 mph 69% 0.00 in meteobridge W/m2
15:19 46.0 °F 36.5 °F 30.21 in ESE 2.0 mph 5.0 mph 69% 0.00 in meteobridge W/m2
15:24 45.9 °F 36.0 °F 30.21 in SE 2.0 mph 8.0 mph 68% 0.00 in meteobridge W/m2
15:29 45.9 °F 36.0 °F 30.20 in SSE 6.0 mph 9.0 mph 68% 0.00 in meteobridge W/m2
15:34 45.7 °F 35.8 °F 30.20 in South 4.0 mph 10.0 mph 68% 0.00 in meteobridge W/m2
15:39 45.5 °F 35.6 °F 30.20 in Calm   5.0 mph 68% 0.00 in meteobridge W/m2
15:44 45.5 °F 36.0 °F 30.20 in Calm   5.0 mph 69% 0.00 in meteobridge W/m2
15:49 45.5 °F 36.0 °F 30.19 in Calm   5.0 mph 69% 0.00 in meteobridge W/m2
15:54 45.3 °F 35.8 °F 30.19 in SE 0.9 mph 5.0 mph 69% 0.00 in meteobridge W/m2
15:59 45.3 °F 35.8 °F 30.19 in Calm   2.0 mph 69% 0.00 in meteobridge W/m2
16:04 45.1 °F 35.6 °F 30.18 in ESE 2.0 mph 7.0 mph 69% 0.00 in meteobridge W/m2
16:09 45.1 °F 36.0 °F 30.19 in Calm     70% 0.00 in meteobridge W/m2
16:14 45.1 °F 36.0 °F 30.18 in ESE 2.0 mph 5.0 mph 70% 0.00 in meteobridge W/m2
16:19 45.1 °F 36.3 °F 30.18 in Calm   1.0 mph 71% 0.00 in meteobridge W/m2
16:24 45.1 °F 36.3 °F 30.18 in SE 4.0 mph 5.0 mph 71% 0.00 in meteobridge W/m2
16:29 45.3 °F 36.5 °F 30.18 in Calm     71% 0.00 in meteobridge W/m2
16:34 45.3 °F 36.5 °F 30.18 in ESE 0.9 mph 4.0 mph 71% 0.00 in meteobridge W/m2
16:39 45.3 °F 36.5 °F 30.17 in Calm   5.0 mph 71% 0.00 in meteobridge W/m2
16:44 45.3 °F 36.5 °F 30.17 in East 4.9 mph 9.0 mph 71% 0.00 in meteobridge W/m2
16:49 45.3 °F 36.5 °F 30.18 in SE 4.0 mph 6.0 mph 71% 0.00 in meteobridge W/m2
16:54 45.3 °F 36.5 °F 30.18 in East 0.9 mph 7.0 mph 71% 0.00 in meteobridge W/m2
16:59 45.3 °F 36.9 °F 30.18 in SE 4.0 mph 5.0 mph 72% 0.00 in meteobridge W/m2
17:04 45.0 °F 36.9 °F 30.18 in SE 0.9 mph 13.0 mph 73% 0.00 in meteobridge W/m2
17:09 44.8 °F 37.0 °F 30.18 in SE 2.0 mph 5.0 mph 74% 0.00 in meteobridge W/m2
17:14 44.4 °F 37.0 °F 30.19 in SE 2.0 mph 7.0 mph 75% 0.00 in meteobridge W/m2
17:19 44.2 °F 36.9 °F 30.19 in SSE 2.0 mph 5.0 mph 75% 0.00 in meteobridge W/m2
17:24 43.9 °F 36.5 °F 30.19 in Calm   2.0 mph 75% 0.00 in meteobridge W/m2
17:29 43.2 °F 35.4 °F 30.18 in Calm   11.0 mph 74% 0.00 in meteobridge W/m2
17:34 43.0 °F 34.9 °F 30.18 in ESE 2.0 mph 5.0 mph 73% 0.00 in meteobridge W/m2
17:39 42.6 °F 34.5 °F 30.17 in Calm   5.0 mph 73% 0.00 in meteobridge W/m2
17:44 42.6 °F 34.5 °F 30.18 in SE 2.0 mph 4.0 mph 73% 0.00 in meteobridge W/m2
17:49 42.4 °F 34.0 °F 30.17 in Calm   2.0 mph 72% 0.00 in meteobridge W/m2
17:54 42.3 °F 33.3 °F 30.17 in Calm   5.0 mph 70% 0.01 in meteobridge W/m2
17:59 42.1 °F 32.4 °F 30.17 in Calm     68% 0.01 in meteobridge W/m2
18:04 41.7 °F 31.6 °F 30.16 in SSE 2.0 mph 7.0 mph 67% 0.01 in meteobridge W/m2
18:09 41.7 °F 31.6 °F 30.17 in Calm   5.0 mph 67% 0.01 in meteobridge W/m2
18:14 41.7 °F 31.6 °F 30.16 in SE 4.0 mph 6.0 mph 67% 0.01 in meteobridge W/m2
18:19 41.7 °F 32.0 °F 30.16 in ESE 0.9 mph 8.0 mph 68% 0.01 in meteobridge W/m2
18:23 41.7 °F 32.4 °F 30.15 in ESE 6.0 mph 11.0 mph 69% 0.01 in meteobridge W/m2
18:29 41.7 °F 32.7 °F 30.14 in East 4.9 mph 7.0 mph 70% 0.01 in meteobridge W/m2
18:34 41.9 °F 32.9 °F 30.14 in SE 0.9 mph 6.0 mph 70% 0.01 in meteobridge W/m2
18:39 41.9 °F 32.9 °F 30.14 in Calm   7.0 mph 70% 0.01 in meteobridge W/m2
18:44 41.9 °F 32.9 °F 30.15 in Calm   9.0 mph 70% 0.01 in meteobridge W/m2
18:49 41.7 °F 32.4 °F 30.15 in ESE 0.9 mph 1.0 mph 69% 0.01 in meteobridge W/m2
18:54 41.7 °F 32.4 °F 30.15 in Calm     69% 0.00 in meteobridge W/m2
18:59 41.9 °F 32.5 °F 30.15 in SE 0.9 mph 8.0 mph 69% 0.00 in meteobridge W/m2
19:04 41.9 °F 32.5 °F 30.14 in Calm     69% 0.00 in meteobridge W/m2
19:09 42.1 °F 32.7 °F 30.14 in Calm     69% 0.00 in meteobridge W/m2
19:14 42.1 °F 33.1 °F 30.13 in East 2.0 mph 5.0 mph 70% 0.00 in meteobridge W/m2
19:18 42.3 °F 33.6 °F 30.13 in Calm   4.0 mph 71% 0.00 in meteobridge W/m2
19:24 42.3 °F 33.6 °F 30.12 in ESE 4.9 mph 13.0 mph 71% 0.00 in meteobridge W/m2
19:29 41.7 °F 32.7 °F 30.13 in ESE 8.1 mph 9.0 mph 70% 0.00 in meteobridge W/m2
19:34 41.5 °F 32.2 °F 30.12 in Calm   8.0 mph 69% 0.00 in meteobridge W/m2
19:39 41.4 °F 31.6 °F 30.12 in Calm   6.0 mph 68% 0.00 in meteobridge W/m2
19:44 41.2 °F 31.5 °F 30.11 in Calm   6.0 mph 68% 0.00 in meteobridge W/m2
19:49 40.8 °F 31.1 °F 30.11 in Calm   4.0 mph 68% 0.00 in meteobridge W/m2
19:54 40.6 °F 31.3 °F 30.11 in SE 4.0 mph 5.0 mph 69% 0.00 in meteobridge W/m2
19:59 40.6 °F 31.3 °F 30.12 in Calm   4.0 mph 69% 0.00 in meteobridge W/m2
20:04 40.6 °F 31.3 °F 30.12 in Calm   1.0 mph 69% 0.00 in meteobridge W/m2
20:09 40.5 °F 31.5 °F 30.12 in ESE 2.0 mph 5.0 mph 70% 0.00 in meteobridge W/m2
20:14 40.5 °F 31.5 °F 30.11 in SE 2.0 mph 9.0 mph 70% 0.00 in meteobridge W/m2
20:19 40.3 °F 31.3 °F 30.10 in ESE 0.9 mph 7.0 mph 70% 0.00 in meteobridge W/m2
20:24 40.3 °F 31.3 °F 30.10 in Calm   7.0 mph 70% 0.00 in meteobridge W/m2
20:29 39.9 °F 30.6 °F 30.11 in SE 6.9 mph 8.0 mph 69% 0.00 in meteobridge W/m2
20:34 39.9 °F 30.6 °F 30.09 in Calm   5.0 mph 69% 0.00 in meteobridge W/m2
20:39 39.7 °F 30.4 °F 30.09 in Calm   7.0 mph 69% 0.00 in meteobridge W/m2
20:44 39.6 °F 29.8 °F 30.09 in SE 2.0 mph 4.0 mph 68% 0.00 in meteobridge W/m2
20:49 39.6 °F 29.5 °F 30.09 in Calm   4.0 mph 67% 0.00 in meteobridge W/m2
20:54 39.4 °F 29.3 °F 30.09 in East 0.9 mph 6.0 mph 67% 0.00 in meteobridge W/m2
20:59 39.4 °F 28.9 °F 30.09 in ESE 6.9 mph 7.0 mph 66% 0.00 in meteobridge W/m2
21:04 39.2 °F 29.1 °F 30.09 in SE 8.1 mph 8.0 mph 67% 0.00 in meteobridge W/m2
21:09 39.0 °F 28.9 °F 30.08 in SE 8.1 mph 8.0 mph 67% 0.00 in meteobridge W/m2
21:14 39.0 °F 28.9 °F 30.09 in Calm   8.0 mph 67% 0.00 in meteobridge W/m2
21:19 39.0 °F 28.9 °F 30.08 in SE 6.0 mph 8.0 mph 67% 0.00 in meteobridge W/m2
21:24 39.0 °F 29.7 °F 30.08 in SE 2.0 mph 7.0 mph 69% 0.00 in meteobridge W/m2
21:29 39.0 °F 29.7 °F 30.08 in SE 8.9 mph 12.0 mph 69% 0.00 in meteobridge W/m2
21:34 39.0 °F 30.0 °F 30.08 in Calm   6.0 mph 70% 0.00 in meteobridge W/m2
21:39 39.0 °F 30.0 °F 30.09 in SE 2.0 mph 8.0 mph 70% 0.00 in meteobridge W/m2
21:44 39.0 °F 30.0 °F 30.09 in Calm   8.0 mph 70% 0.00 in meteobridge W/m2
21:49 39.0 °F 30.0 °F 30.08 in SE 4.9 mph 6.0 mph 70% 0.00 in meteobridge W/m2
21:54 38.8 °F 29.8 °F 30.08 in ESE 8.1 mph 10.0 mph 70% 0.00 in meteobridge W/m2
21:59 38.8 °F 29.8 °F 30.09 in SSE 6.0 mph 12.0 mph 70% 0.00 in meteobridge W/m2
22:04 38.8 °F 29.8 °F 30.09 in ESE 4.0 mph 17.0 mph 70% 0.00 in meteobridge W/m2
22:09 38.7 °F 29.7 °F 30.09 in SE 4.0 mph 9.0 mph 70% 0.00 in meteobridge W/m2
22:14 38.7 °F 29.7 °F 30.10 in ESE 2.0 mph 5.0 mph 70% 0.00 in meteobridge W/m2
22:19 38.7 °F 29.7 °F 30.10 in SE 0.9 mph 6.0 mph 70% 0.00 in meteobridge W/m2
22:24 38.7 °F 29.7 °F 30.09 in Calm   1.0 mph 70% 0.00 in meteobridge W/m2
22:29 38.7 °F 29.3 °F 30.09 in Calm     69% 0.00 in meteobridge W/m2
22:34 38.7 °F 29.3 °F 30.09 in Calm   4.0 mph 69% 0.00 in meteobridge W/m2
22:39 38.8 °F 29.5 °F 30.09 in Calm   6.0 mph 69% 0.00 in meteobridge W/m2
22:44 38.8 °F 29.1 °F 30.09 in Calm   2.0 mph 68% 0.00 in meteobridge W/m2
22:49 38.8 °F 29.1 °F 30.09 in ESE 4.0 mph 6.0 mph 68% 0.00 in meteobridge W/m2
22:54 38.8 °F 28.8 °F 30.09 in ESE 2.0 mph 7.0 mph 67% 0.00 in meteobridge W/m2
22:59 38.7 °F 28.2 °F 30.10 in ESE 0.9 mph 8.0 mph 66% 0.00 in meteobridge W/m2
23:04 38.7 °F 28.2 °F 30.09 in SE 2.0 mph 4.0 mph 66% 0.00 in meteobridge W/m2
23:09 38.7 °F 28.2 °F 30.08 in SE 0.9 mph 7.0 mph 66% 0.00 in meteobridge W/m2
23:14 38.7 °F 28.2 °F 30.07 in ESE 0.9 mph 1.0 mph 66% 0.00 in meteobridge W/m2
23:19 38.7 °F 28.2 °F 30.06 in Calm     66% 0.00 in meteobridge W/m2
23:24 38.5 °F 28.0 °F 30.07 in Calm   2.0 mph 66% 0.00 in meteobridge W/m2
23:29 38.5 °F 28.0 °F 30.08 in Calm   4.0 mph 66% 0.00 in meteobridge W/m2
23:34 38.3 °F 27.9 °F 30.07 in Calm   1.0 mph 66% 0.00 in meteobridge W/m2
23:39 38.3 °F 27.9 °F 30.06 in Calm   5.0 mph 66% 0.00 in meteobridge W/m2
23:44 38.5 °F 28.0 °F 30.07 in SE 8.1 mph 9.0 mph 66% 0.00 in meteobridge W/m2
23:49 38.5 °F 28.4 °F 30.06 in Calm   8.0 mph 67% 0.00 in meteobridge W/m2
23:54 38.7 °F 28.9 °F 30.05 in East 0.9 mph 8.0 mph 68% 0.00 in meteobridge W/m2
23:59 38.7 °F 28.9 °F 30.06 in Calm   5.0 mph 68% 0.00 in meteobridge W/m2
EllijayWeather
Compliments of Weather Underground - 2.5 mb